Time;durP1;ratioP1;P1;durP2;ratioP2;P2;SDS_P1;SDS_P2;PMS_P1;PMS_P2;Temp;Humidity;BMP_temperature;BMP_pressure;BME280_temperature;BME280_humidity;BME280_pressure;Samples;Min_cycle;Max_cycle;Signal;HPM_P1;HPM_P2
2022/03/31 00:01:31;;;;;;;;;;;;;;;11.11;74.52;98961.66;5132273;27;1897;-59
2022/03/31 00:03:58;;;;;;;;;;;;;;;11.09;74.42;98960.53;5132429;28;853;-59
2022/03/31 00:06:25;;;;;;;;;;;;;;;11.07;74.36;98969.22;5132674;28;853;-59
2022/03/31 00:08:51;;;;;;;;;;;;;;;11.09;74.74;98963.28;5132763;28;826;-59
2022/03/31 00:11:18;;;;;;;;;;;;;;;11.08;74.63;98961.75;5132233;28;938;-60
2022/03/31 00:13:47;;;;;;;;;;;;;;;11.04;74.42;98959.03;5132395;28;893;-59
2022/03/31 00:16:13;;;;;;;;;;;;;;;10.98;74.58;98955.22;5132358;28;945;-60
2022/03/31 00:18:40;;;;;;;;;;;;;;;10.93;74.64;98952.94;5132377;28;870;-59
2022/03/31 00:33:18;;;;;;;;;;;;;;;10.92;75.04;98962.44;5132498;28;687;-59
2022/03/31 00:35:43;;;;;;;;;;;;;;;10.90;74.91;98949.03;5132651;28;889;-59
2022/03/31 00:38:11;;;;;;;;;;;;;;;10.87;74.94;98943.59;5132224;28;794;-59
2022/03/31 00:40:38;;;;;;;;;;;;;;;10.82;74.84;98947.63;5132739;28;798;-59
2022/03/31 00:43:04;;;;;;;;;;;;;;;10.76;75.11;98941.81;5132483;28;1939;-59
2022/03/31 00:45:34;;;;;;;;;;;;;;;10.73;74.87;98944.63;5132125;28;927;-59
2022/03/31 00:48:01;;;;;;;;;;;;;;;10.69;75.25;98939.19;5132151;28;862;-59
2022/03/31 00:50:28;;;;;;;;;;;;;;;10.62;75.14;98937.34;5132391;28;806;-58
2022/03/31 00:52:55;;;;;;;;;;;;;;;10.57;75.47;98948.88;5132552;28;754;-59
2022/03/31 00:55:22;;;;;;;;;;;;;;;10.51;75.80;98945.03;5132092;28;930;-58
2022/03/31 00:57:55;;;;;;;;;;;;;;;10.48;76.07;98934.84;5132064;28;925;-59
2022/03/31 01:00:22;;;;;;;;;;;;;;;10.46;76.10;98933.72;5131856;28;1046;-59
2022/03/31 01:02:48;;;;;;;;;;;;;;;10.51;76.24;98930.44;5131712;28;1898;-58
2022/03/31 01:05:15;;;;;;;;;;;;;;;10.61;76.48;98921.19;5131966;28;845;-59
2022/03/31 01:07:42;;;;;;;;;;;;;;;10.70;76.26;98912.34;5131883;27;901;-59
2022/03/31 01:10:10;;;;;;;;;;;;;;;10.67;76.09;98918.69;5134952;27;854;-59
2022/03/31 01:12:37;;;;;;;;;;;;;;;10.61;76.50;98921.19;5135683;27;908;-59
2022/03/31 01:15:06;;;;;;;;;;;;;;;10.54;76.50;98915.78;5135468;27;830;-59
2022/03/31 01:17:36;;;;;;;;;;;;;;;10.44;76.59;98912.03;5135807;27;877;-59
2022/03/31 01:20:04;;;;;;;;;;;;;;;10.37;76.58;98915.72;5135400;27;921;-58
2022/03/31 01:22:31;;;;;;;;;;;;;;;10.28;76.68;98915.44;5135260;27;1943;-59
2022/03/31 01:25:02;;;;;;;;;;;;;;;10.24;76.80;98920.22;5117133;27;1276;-58
2022/03/31 01:27:28;;;;;;;;;;;;;;;10.13;77.09;98922.41;5135187;27;870;-59
2022/03/31 01:29:54;;;;;;;;;;;;;;;10.00;77.34;98936.03;5135265;27;850;-59
2022/03/31 01:32:22;;;;;;;;;;;;;;;9.92;77.47;98927.09;5116818;27;1628;-58
2022/03/31 01:34:50;;;;;;;;;;;;;;;9.88;77.74;98923.63;5135488;27;808;-58
2022/03/31 01:37:16;;;;;;;;;;;;;;;9.86;78.02;98914.19;5135169;27;872;-58
2022/03/31 01:39:43;;;;;;;;;;;;;;;9.76;78.24;98924.97;5134885;27;845;-59
2022/03/31 01:42:10;;;;;;;;;;;;;;;9.58;78.49;98930.78;5134967;27;1882;-58
2022/03/31 01:44:37;;;;;;;;;;;;;;;9.49;78.80;98913.94;5134890;27;932;-58
2022/03/31 01:47:04;;;;;;;;;;;;;;;9.36;79.08;98912.97;5134949;27;897;-59
2022/03/31 01:49:31;;;;;;;;;;;;;;;9.28;79.64;98912.31;5134851;27;869;-58
2022/03/31 01:51:57;;;;;;;;;;;;;;;9.23;80.18;98915.50;5134872;27;778;-58
2022/03/31 01:54:24;;;;;;;;;;;;;;;9.15;80.09;98912.09;5134819;27;833;-59
2022/03/31 01:56:51;;;;;;;;;;;;;;;9.05;80.94;98915.75;5134760;27;833;-58
2022/03/31 01:59:18;;;;;;;;;;;;;;;8.94;81.39;98912.34;5134617;27;874;-59
2022/03/31 02:01:44;;;;;;;;;;;;;;;8.81;81.46;98917.59;5134249;27;1976;-59
2022/03/31 02:04:11;;;;;;;;;;;;;;;8.71;81.80;98913.81;5134757;27;841;-59
2022/03/31 02:06:38;;;;;;;;;;;;;;;8.66;81.67;98916.22;5134475;27;790;-59
2022/03/31 02:09:05;;;;;;;;;;;;;;;8.58;82.25;98916.31;5134517;27;814;-58
2022/03/31 02:11:32;;;;;;;;;;;;;;;8.47;82.48;98903.84;5134503;27;834;-58
2022/03/31 02:13:59;;;;;;;;;;;;;;;8.36;83.29;98907.47;5134353;27;944;-58
2022/03/31 02:16:26;;;;;;;;;;;;;;;8.26;83.97;98921.34;5134290;27;842;-59
2022/03/31 02:18:51;;;;;;;;;;;;;;;8.15;84.72;98927.72;5134279;27;849;-59
2022/03/31 02:21:18;;;;;;;;;;;;;;;8.03;84.24;98922.72;5134170;27;1949;-59
2022/03/31 02:23:45;;;;;;;;;;;;;;;7.97;85.34;98927.88;5134286;27;806;-59
2022/03/31 02:26:12;;;;;;;;;;;;;;;8.01;85.82;98919.59;5134098;27;1013;-58
2022/03/31 02:28:39;;;;;;;;;;;;;;;8.09;86.23;98914.81;5133969;27;929;-59
2022/03/31 02:31:06;;;;;;;;;;;;;;;8.18;85.41;98915.13;5134141;27;838;-58
2022/03/31 02:33:32;;;;;;;;;;;;;;;8.23;85.46;98900.13;5134287;27;850;-59
2022/03/31 02:35:59;;;;;;;;;;;;;;;8.31;85.66;98910.66;5133949;27;842;-58
2022/03/31 02:38:26;;;;;;;;;;;;;;;8.38;84.92;98899.59;5133797;27;960;-59
2022/03/31 02:40:53;;;;;;;;;;;;;;;8.42;85.07;98907.03;5133760;27;1885;-59
2022/03/31 02:43:20;;;;;;;;;;;;;;;8.46;85.04;98910.53;5133759;27;1027;-58
2022/03/31 02:45:47;;;;;;;;;;;;;;;8.40;84.86;98899.16;5133623;27;945;-58
2022/03/31 02:48:15;;;;;;;;;;;;;;;8.30;84.89;98906.34;5133807;27;889;-59
2022/03/31 02:50:42;;;;;;;;;;;;;;;8.23;85.48;98905.63;5133568;27;921;-59
2022/03/31 02:55:55;;;;;;;;;;;;;;;8.24;85.77;98902.47;5134001;27;699;-58
2022/03/31 02:58:21;;;;;;;;;;;;;;;8.32;86.10;98908.69;5133557;27;1068;-58
2022/03/31 03:00:48;;;;;;;;;;;;;;;8.25;86.01;98917.00;5133328;27;1408;-59
2022/03/31 03:03:15;;;;;;;;;;;;;;;8.19;86.43;98908.41;5133367;27;941;-60
2022/03/31 03:05:42;;;;;;;;;;;;;;;8.20;86.26;98903.72;5133490;27;818;-60
2022/03/31 03:08:08;;;;;;;;;;;;;;;8.35;86.45;98905.13;5133542;27;814;-60
2022/03/31 03:10:34;;;;;;;;;;;;;;;8.37;87.00;98906.28;5133262;27;1028;-59
2022/03/31 03:13:01;;;;;;;;;;;;;;;8.43;87.10;98909.41;5133391;27;829;-59
2022/03/31 03:15:27;;;;;;;;;;;;;;;8.47;86.99;98907.38;5133161;27;849;-59
2022/03/31 03:17:54;;;;;;;;;;;;;;;8.50;87.13;98912.06;5133256;27;798;-59
2022/03/31 03:20:24;;;;;;;;;;;;;;;8.51;86.95;98910.09;5133096;27;854;-60
2022/03/31 03:22:51;;;;;;;;;;;;;;;8.39;87.24;98909.41;5132927;27;1889;-60
2022/03/31 03:25:19;;;;;;;;;;;;;;;8.36;87.83;98939.72;5133103;27;880;-60
2022/03/31 03:27:47;;;;;;;;;;;;;;;8.35;87.55;98929.91;5132972;27;862;-59
2022/03/31 03:30:14;;;;;;;;;;;;;;;8.33;88.04;98921.28;5132816;27;948;-60
2022/03/31 03:32:41;;;;;;;;;;;;;;;8.29;87.27;98909.50;5132805;27;941;-59
2022/03/31 03:35:09;;;;;;;;;;;;;;;8.23;87.20;98908.38;5114418;27;1273;-59
2022/03/31 03:37:37;;;;;;;;;;;;;;;8.21;87.63;98924.53;5132859;27;877;-60
2022/03/31 03:40:07;;;;;;;;;;;;;;;8.17;88.18;98921.78;5132876;27;802;-60
2022/03/31 03:42:33;;;;;;;;;;;;;;;8.23;87.89;98911.91;5132582;27;1945;-59
2022/03/31 03:45:01;;;;;;;;;;;;;;;8.21;87.33;98910.75;5132797;27;770;-60
2022/03/31 03:47:28;;;;;;;;;;;;;;;8.13;87.87;98912.81;5132942;27;941;-59
2022/03/31 03:49:54;;;;;;;;;;;;;;;8.05;87.94;98900.31;5132710;27;830;-60
2022/03/31 03:52:21;;;;;;;;;;;;;;;8.00;88.88;98908.97;5132543;27;897;-60
2022/03/31 03:54:48;;;;;;;;;;;;;;;7.93;88.37;98901.56;5132667;27;849;-60
2022/03/31 03:57:15;;;;;;;;;;;;;;;7.84;89.34;98902.03;5132595;27;802;-60
2022/03/31 03:59:42;;;;;;;;;;;;;;;7.74;89.45;98911.94;5132568;27;850;-60
2022/03/31 04:02:08;;;;;;;;;;;;;;;7.71;89.87;98911.97;5132076;27;1902;-59
2022/03/31 04:04:35;;;;;;;;;;;;;;;7.71;90.03;98909.22;5114167;28;1196;-59
2022/03/31 04:07:01;;;;;;;;;;;;;;;7.71;90.10;98912.75;5132319;28;905;-59
2022/03/31 04:09:28;;;;;;;;;;;;;;;7.74;90.37;98905.66;5132481;28;817;-60
2022/03/31 04:11:55;;;;;;;;;;;;;;;7.76;90.41;98906.03;5132473;28;876;-60
2022/03/31 04:14:22;;;;;;;;;;;;;;;7.84;90.40;98907.53;5132370;28;921;-60
2022/03/31 04:16:48;;;;;;;;;;;;;;;7.93;90.19;98913.34;5132363;28;820;-60
2022/03/31 04:19:16;;;;;;;;;;;;;;;8.01;89.94;98908.59;5132495;28;845;-60
2022/03/31 04:21:42;;;;;;;;;;;;;;;8.01;89.92;98889.31;5132187;28;1889;-60
2022/03/31 04:24:09;;;;;;;;;;;;;;;8.05;90.74;98894.81;5132355;28;794;-59
2022/03/31 04:26:36;;;;;;;;;;;;;;;8.09;90.58;98901.06;5132689;28;806;-60
2022/03/31 04:29:02;;;;;;;;;;;;;;;8.17;90.97;98902.53;5132310;28;902;-59
2022/03/31 04:31:29;;;;;;;;;;;;;;;8.29;91.07;98887.47;5132236;28;806;-59
2022/03/31 04:33:55;;;;;;;;;;;;;;;8.37;90.81;98889.75;5132324;28;806;-59
2022/03/31 04:36:22;;;;;;;;;;;;;;;8.46;90.38;98905.81;5132105;28;885;-59
2022/03/31 04:38:48;;;;;;;;;;;;;;;8.64;90.60;98897.38;5132143;28;964;-60
2022/03/31 04:41:15;;;;;;;;;;;;;;;8.79;90.15;98890.50;5132310;28;1882;-60
2022/03/31 04:43:40;;;;;;;;;;;;;;;8.88;89.81;98894.72;5132854;27;946;-59
2022/03/31 04:46:07;;;;;;;;;;;;;;;8.94;89.29;98909.56;5136194;27;865;-60
2022/03/31 04:48:35;;;;;;;;;;;;;;;9.01;89.19;98903.22;5136107;27;826;-60
2022/03/31 04:51:02;;;;;;;;;;;;;;;9.03;88.99;98895.31;5117647;27;1733;-60
2022/03/31 04:53:28;;;;;;;;;;;;;;;9.12;88.76;98907.38;5135963;27;944;-60
2022/03/31 04:55:55;;;;;;;;;;;;;;;9.22;88.40;98896.63;5135981;27;842;-60
2022/03/31 04:58:22;;;;;;;;;;;;;;;9.34;87.99;98898.81;5136058;27;809;-60
2022/03/31 05:00:48;;;;;;;;;;;;;;;9.47;87.76;98908.06;5135560;27;1260;-60
2022/03/31 05:03:15;;;;;;;;;;;;;;;9.65;87.34;98907.03;5135747;27;1898;-60
2022/03/31 05:05:41;;;;;;;;;;;;;;;9.89;86.92;98900.31;5135678;27;964;-60
2022/03/31 05:08:08;;;;;;;;;;;;;;;10.22;85.90;98895.06;5135790;27;1042;-60
2022/03/31 05:10:35;;;;;;;;;;;;;;;10.63;84.99;98888.38;5135706;27;880;-60
2022/03/31 05:13:01;;;;;;;;;;;;;;;11.04;83.26;98889.91;5135744;27;896;-60
2022/03/31 05:15:28;;;;;;;;;;;;;;;11.44;82.20;98887.06;5135590;27;926;-60
2022/03/31 05:17:55;;;;;;;;;;;;;;;11.92;81.48;98879.22;5117285;27;833;-60
2022/03/31 05:20:22;;;;;;;;;;;;;;;12.37;79.47;98881.22;5135497;27;1019;-60
2022/03/31 05:22:49;;;;;;;;;;;;;;;12.52;78.79;98889.91;5135410;27;1939;-60
2022/03/31 05:25:15;;;;;;;;;;;;;;;12.42;77.84;98892.56;5135423;27;821;-60
2022/03/31 05:27:43;;;;;;;;;;;;;;;12.21;77.43;98887.59;5135248;27;906;-59
2022/03/31 05:30:11;;;;;;;;;;;;;;;12.24;77.65;98893.00;5135665;27;790;-59
2022/03/31 05:32:37;;;;;;;;;;;;;;;12.30;76.69;98889.72;5135247;27;1122;-60
2022/03/31 05:35:03;;;;;;;;;;;;;;;12.45;77.02;98891.66;5135219;27;817;-60
2022/03/31 05:37:30;;;;;;;;;;;;;;;12.62;75.83;98886.09;5135233;27;790;-60
2022/03/31 05:39:56;;;;;;;;;;;;;;;12.68;75.50;98883.56;5116792;27;889;-60
2022/03/31 05:42:23;;;;;;;;;;;;;;;12.74;75.52;98885.34;5135039;27;1944;-60
2022/03/31 05:44:50;;;;;;;;;;;;;;;12.84;75.53;98886.25;5135076;27;897;-60
2022/03/31 05:47:17;;;;;;;;;;;;;;;12.94;75.08;98887.16;5135028;27;790;-60
2022/03/31 05:49:43;;;;;;;;;;;;;;;12.97;74.90;98900.13;5135014;27;864;-60
2022/03/31 05:52:10;;;;;;;;;;;;;;;12.86;74.76;98897.69;5135123;27;893;-59
2022/03/31 05:54:36;;;;;;;;;;;;;;;12.79;75.42;98895.88;5134571;27;918;-59
2022/03/31 05:57:03;;;;;;;;;;;;;;;12.90;75.11;98898.34;5135082;27;878;-60
2022/03/31 05:59:30;;;;;;;;;;;;;;;12.95;74.96;98897.81;5134850;27;874;-60
2022/03/31 06:01:57;;;;;;;;;;;;;;;13.05;75.25;98898.72;5134649;27;1913;-60
2022/03/31 06:04:23;;;;;;;;;;;;;;;13.37;74.13;98889.44;5116284;27;1274;-60
2022/03/31 06:06:50;;;;;;;;;;;;;;;13.70;73.36;98880.91;5116662;27;1230;-60
2022/03/31 06:09:17;;;;;;;;;;;;;;;14.04;72.32;98866.28;5134966;27;810;-60
2022/03/31 06:11:44;;;;;;;;;;;;;;;14.39;70.96;98871.81;5135222;27;754;-60
2022/03/31 06:14:12;;;;;;;;;;;;;;;14.59;70.44;98887.44;5134617;27;880;-60
2022/03/31 06:16:38;;;;;;;;;;;;;;;14.33;70.46;98876.41;5134544;27;914;-59
2022/03/31 06:19:05;;;;;;;;;;;;;;;14.20;71.08;98870.88;5134550;27;919;-59
2022/03/31 06:21:32;;;;;;;;;;;;;;;14.26;70.90;98883.00;5134803;27;1890;-59
2022/03/31 06:23:58;;;;;;;;;;;;;;;14.07;71.20;98898.72;5134593;27;834;-59
2022/03/31 06:26:25;;;;;;;;;;;;;;;13.72;72.19;98895.13;5134046;27;1218;-59
2022/03/31 06:28:51;;;;;;;;;;;;;;;13.52;73.19;98914.78;5134100;27;913;-59
2022/03/31 06:31:18;;;;;;;;;;;;;;;13.46;73.65;98919.31;5134041;27;1209;-60
2022/03/31 06:33:45;;;;;;;;;;;;;;;13.53;73.93;98915.53;5133989;27;885;-59
2022/03/31 06:36:12;;;;;;;;;;;;;;;13.64;73.63;98927.09;5134229;27;854;-59
2022/03/31 06:38:38;;;;;;;;;;;;;;;13.99;73.17;98936.28;5134002;27;861;-59
2022/03/31 06:41:10;;;;;;;;;;;;;;;14.45;71.93;98927.63;5133809;27;1866;-60
2022/03/31 06:43:41;;;;;;;;;;;;;;;14.70;71.94;98910.06;5133914;27;913;-59
2022/03/31 06:46:08;;;;;;;;;;;;;;;14.83;70.82;98912.78;5133730;27;850;-59
2022/03/31 06:48:36;;;;;;;;;;;;;;;14.66;71.05;98921.34;5133747;27;873;-59
2022/03/31 06:51:04;;;;;;;;;;;;;;;14.55;71.65;98940.41;5134118;27;877;-59
2022/03/31 06:53:31;;;;;;;;;;;;;;;14.36;71.93;98941.44;5133679;27;791;-59
2022/03/31 06:55:58;;;;;;;;;;;;;;;14.24;72.65;98926.34;5133681;27;817;-59
2022/03/31 06:58:30;;;;;;;;;;;;;;;14.13;72.72;98932.28;5133606;27;956;-60
2022/03/31 07:00:57;;;;;;;;;;;;;;;14.12;73.18;98932.72;5133210;27;1348;-60
2022/03/31 07:03:23;;;;;;;;;;;;;;;14.24;73.01;98940.25;5133385;27;1015;-60
2022/03/31 07:05:50;;;;;;;;;;;;;;;14.36;72.62;98947.78;5133154;27;865;-60
2022/03/31 07:08:16;;;;;;;;;;;;;;;14.51;72.06;98945.28;5114836;27;834;-59
2022/03/31 07:10:44;;;;;;;;;;;;;;;14.60;71.92;98939.06;5133375;27;810;-60
2022/03/31 07:13:10;;;;;;;;;;;;;;;14.56;71.40;98919.72;5133233;27;901;-60
2022/03/31 07:15:37;;;;;;;;;;;;;;;14.59;70.63;98921.59;5133221;27;877;-59
2022/03/31 07:18:05;;;;;;;;;;;;;;;14.70;71.03;98926.75;5133312;27;818;-59
2022/03/31 07:20:32;;;;;;;;;;;;;;;14.86;70.18;98925.81;5133049;27;957;-59
2022/03/31 07:22:59;;;;;;;;;;;;;;;14.95;69.80;98913.97;5133125;27;1890;-59
2022/03/31 07:25:26;;;;;;;;;;;;;;;15.00;69.58;98921.72;5132969;27;886;-60
2022/03/31 07:27:53;;;;;;;;;;;;;;;15.00;69.95;98921.72;5132953;27;921;-60
2022/03/31 07:30:21;;;;;;;;;;;;;;;14.95;69.85;98936.22;5133060;27;868;-59
2022/03/31 07:32:49;;;;;;;;;;;;;;;14.93;69.63;98928.31;5132895;27;802;-59
2022/03/31 07:35:15;;;;;;;;;;;;;;;15.10;69.57;98918.53;5132925;27;826;-59
2022/03/31 07:37:42;;;;;;;;;;;;;;;15.24;69.61;98919.25;5132749;27;916;-59
2022/03/31 07:40:09;;;;;;;;;;;;;;;15.24;68.50;98908.88;5132889;27;890;-60
2022/03/31 07:42:36;;;;;;;;;;;;;;;15.31;68.89;98902.25;5132625;27;1935;-60
2022/03/31 07:45:03;;;;;;;;;;;;;;;15.46;68.55;98903.25;5132772;27;779;-59
2022/03/31 07:47:30;;;;;;;;;;;;;;;15.67;68.47;98898.09;5114402;27;779;-60
2022/03/31 07:49:57;;;;;;;;;;;;;;;15.93;67.74;98904.97;5132698;27;889;-60
2022/03/31 07:52:23;;;;;;;;;;;;;;;16.23;66.49;98904.56;5132660;27;877;-59
2022/03/31 07:54:50;;;;;;;;;;;;;;;16.15;65.90;98909.66;5132859;27;794;-59
2022/03/31 07:57:19;;;;;;;;;;;;;;;15.96;65.72;98913.66;5132659;27;794;-59
2022/03/31 07:59:44;;;;;;;;;;;;;;;15.68;66.47;98903.19;5132465;27;881;-59
2022/03/31 08:02:11;;;;;;;;;;;;;;;15.63;66.93;98911.38;5132080;27;1983;-59
2022/03/31 08:04:37;;;;;;;;;;;;;;;15.64;67.00;98919.28;5132472;27;905;-59
2022/03/31 08:07:04;;;;;;;;;;;;;;;15.84;65.95;98929.28;5132595;28;794;-59
2022/03/31 08:09:31;;;;;;;;;;;;;;;15.93;65.95;98923.72;5132714;28;857;-59
2022/03/31 08:11:58;;;;;;;;;;;;;;;16.02;65.48;98931.31;5132422;28;910;-59
2022/03/31 08:14:25;;;;;;;;;;;;;;;16.09;65.46;98928.25;5132346;28;865;-60
2022/03/31 08:16:52;;;;;;;;;;;;;;;16.17;65.48;98932.28;5114003;28;1610;-59
2022/03/31 08:19:19;;;;;;;;;;;;;;;15.99;65.12;98926.69;5136083;27;1274;-59
2022/03/31 08:21:47;;;;;;;;;;;;;;;15.99;65.71;98924.66;5136943;27;1946;-59
2022/03/31 08:24:14;;;;;;;;;;;;;;;15.95;66.13;98924.03;5136628;27;869;-59
2022/03/31 08:26:42;;;;;;;;;;;;;;;15.88;66.54;98932.69;5118260;27;977;-59
2022/03/31 08:29:09;;;;;;;;;;;;;;;15.75;66.98;98930.03;5136477;27;1670;-59
2022/03/31 08:31:36;;;;;;;;;;;;;;;15.66;67.27;98918.78;5136293;27;794;-59
2022/03/31 08:34:03;;;;;;;;;;;;;;;15.61;67.45;98925.75;5136461;27;787;-59
2022/03/31 08:36:30;;;;;;;;;;;;;;;15.64;67.82;98921.25;5136410;27;810;-60
2022/03/31 08:38:57;;;;;;;;;;;;;;;15.59;67.64;98911.50;5136528;27;878;-59
2022/03/31 08:41:24;;;;;;;;;;;;;;;15.59;67.67;98905.16;5136170;27;1944;-59
2022/03/31 08:43:51;;;;;;;;;;;;;;;15.71;67.01;98912.66;5136177;27;815;-59
2022/03/31 08:46:18;;;;;;;;;;;;;;;15.93;66.23;98915.34;5136173;27;877;-59
2022/03/31 08:48:44;;;;;;;;;;;;;;;16.15;65.99;98923.59;5136149;27;824;-59
2022/03/31 08:51:11;;;;;;;;;;;;;;;16.06;65.42;98918.78;5136106;27;837;-59
2022/03/31 08:53:38;;;;;;;;;;;;;;;16.04;64.74;98917.69;5136232;27;944;-59
2022/03/31 08:56:05;;;;;;;;;;;;;;;16.20;64.99;98906.28;5136037;27;829;-60
2022/03/31 08:58:32;;;;;;;;;;;;;;;16.40;64.92;98907.84;5135932;27;852;-60
2022/03/31 09:00:58;;;;;;;;;;;;;;;16.41;64.59;98918.53;5135592;27;1231;-59
2022/03/31 09:03:35;;;;;;;;;;;;;;;16.36;64.70;98901.63;5135789;27;1955;-59
2022/03/31 09:06:03;;;;;;;;;;;;;;;16.50;64.48;98904.59;5136115;27;817;-59
2022/03/31 09:08:31;;;;;;;;;;;;;;;16.62;63.48;98897.31;5135907;27;960;-59
2022/03/31 09:11:00;;;;;;;;;;;;;;;16.52;63.46;98888.16;5136142;27;842;-60
2022/03/31 09:13:38;;;;;;;;;;;;;;;16.49;63.37;98902.25;5135520;27;933;-59
2022/03/31 09:16:06;;;;;;;;;;;;;;;16.46;63.97;98903.97;5135537;27;929;-60
2022/03/31 09:18:36;;;;;;;;;;;;;;;16.66;63.78;98899.94;5135510;27;1079;-59
2022/03/31 09:21:05;;;;;;;;;;;;;;;16.87;62.41;98899.00;5135411;27;961;-59
2022/03/31 09:23:39;;;;;;;;;;;;;;;16.97;62.41;98887.84;5135839;27;802;-59
2022/03/31 09:26:08;;;;;;;;;;;;;;;17.34;61.28;98892.06;5116964;27;1135;-60
2022/03/31 09:28:36;;;;;;;;;;;;;;;17.65;61.92;98893.81;5135281;27;854;-60
2022/03/31 09:31:06;;;;;;;;;;;;;;;17.71;60.54;98868.78;5134656;27;964;-59
2022/03/31 09:33:33;;;;;;;;;;;;;;;18.23;59.42;98857.44;5135345;27;908;-59
2022/03/31 09:36:02;;;;;;;;;;;;;;;19.27;58.77;98852.72;5135187;27;790;-60
2022/03/31 09:38:29;;;;;;;;;;;;;;;19.86;53.85;98828.59;5135263;27;868;-59
2022/03/31 09:40:57;;;;;;;;;;;;;;;19.94;54.52;98826.94;5135253;27;865;-59
2022/03/31 09:43:24;;;;;;;;;;;;;;;20.14;52.79;98815.72;5135019;27;1925;-59
2022/03/31 09:45:50;;;;;;;;;;;;;;;19.97;54.04;98817.53;5134998;27;909;-59
2022/03/31 09:48:19;;;;;;;;;;;;;;;19.86;53.55;98829.38;5134994;27;818;-59
2022/03/31 09:50:44;;;;;;;;;;;;;;;19.93;52.43;98839.41;5134909;27;814;-59
2022/03/31 09:53:11;;;;;;;;;;;;;;;20.16;54.25;98840.44;5116492;27;1309;-59
2022/03/31 09:55:38;;;;;;;;;;;;;;;20.63;52.46;98823.63;5134876;27;802;-60
2022/03/31 10:25:52;;;;;;;;;;;;;;;18.70;56.96;98778.19;4981766;23;1691;-58
2022/03/31 10:28:23;;;;;;;;;;;;;;;18.93;56.19;98759.00;4974432;28;826;-58
2022/03/31 10:30:57;;;;;;;;;;;;;;;19.15;55.01;98750.16;4974767;28;879;-58
2022/03/31 10:33:42;;;;;;;;;;;;;;;19.25;55.30;98751.59;4974201;28;926;-58
2022/03/31 10:36:13;;;;;;;;;;;;;;;19.55;54.54;98729.84;4974319;28;787;-58
2022/03/31 10:39:02;;;;;;;;;;;;;;;19.57;54.84;98748.97;4974088;28;934;-58
2022/03/31 10:41:30;;;;;;;;;;;;;;;19.71;54.70;98750.94;4973037;28;1978;-56
2022/03/31 10:43:59;;;;;;;;;;;;;;;19.79;54.85;98766.09;4974121;28;870;-56
2022/03/31 10:46:28;;;;;;;;;;;;;;;19.68;54.17;98748.34;4974116;28;856;-57
2022/03/31 10:48:55;;;;;;;;;;;;;;;19.63;55.20;98755.41;4973994;28;856;-57
2022/03/31 10:51:36;;;;;;;;;;;;;;;19.77;54.35;98748.97;4973979;28;818;-57
2022/03/31 10:54:04;;;;;;;;;;;;;;;20.20;53.77;98742.81;4973785;28;856;-57
2022/03/31 10:56:31;;;;;;;;;;;;;;;19.89;54.01;98771.56;4973800;28;1057;-57
2022/03/31 10:59:00;;;;;;;;;;;;;;;19.49;54.63;98764.66;4973922;28;902;-57
2022/03/31 11:01:31;;;;;;;;;;;;;;;19.61;54.73;98762.75;4956546;28;2074;-57
2022/03/31 11:03:59;;;;;;;;;;;;;;;19.77;53.69;98756.63;4973648;28;938;-57
2022/03/31 11:06:26;;;;;;;;;;;;;;;19.74;53.39;98744.38;4973584;28;933;-57
2022/03/31 11:08:52;;;;;;;;;;;;;;;19.71;53.15;98745.34;4973567;28;911;-57
2022/03/31 11:11:24;;;;;;;;;;;;;;;19.87;53.12;98758.03;4973600;28;867;-57
2022/03/31 11:13:51;;;;;;;;;;;;;;;20.11;52.52;98754.22;4973990;28;795;-57
2022/03/31 11:16:18;;;;;;;;;;;;;;;20.35;51.60;98762.34;4956638;28;823;-57
2022/03/31 11:18:59;;;;;;;;;;;;;;;20.43;51.92;98769.06;4973771;28;855;-57
2022/03/31 11:21:33;;;;;;;;;;;;;;;20.45;52.04;98769.34;4973323;28;1878;-57
2022/03/31 11:23:59;;;;;;;;;;;;;;;20.30;51.41;98777.88;4973603;28;931;-57
2022/03/31 11:26:27;;;;;;;;;;;;;;;20.05;52.49;98785.00;4973272;28;1311;-57
2022/03/31 11:28:55;;;;;;;;;;;;;;;19.93;52.85;98791.75;4973319;28;808;-58
2022/03/31 11:31:21;;;;;;;;;;;;;;;19.74;52.61;98789.22;4974128;28;788;-59
2022/03/31 11:33:49;;;;;;;;;;;;;;;19.75;53.06;98753.53;4973854;28;819;-59
2022/03/31 11:36:20;;;;;;;;;;;;;;;19.96;52.66;98782.34;4973417;28;808;-58
2022/03/31 11:39:04;;;;;;;;;;;;;;;19.97;52.54;98803.50;4973137;28;857;-57
2022/03/31 11:41:40;;;;;;;;;;;;;;;20.10;53.29;98803.94;4973412;28;1970;-57
2022/03/31 11:44:07;;;;;;;;;;;;;;;20.23;52.49;98792.34;4973174;28;843;-57
2022/03/31 11:46:40;;;;;;;;;;;;;;;20.84;51.03;98774.56;4973125;28;811;-57
2022/03/31 11:49:16;;;;;;;;;;;;;;;21.29;49.07;98769.25;4972963;28;935;-57
2022/03/31 11:51:51;;;;;;;;;;;;;;;21.54;48.20;98755.66;4973040;28;787;-57
2022/03/31 11:54:19;;;;;;;;;;;;;;;21.30;50.72;98759.59;4972577;28;795;-57
2022/03/31 11:57:02;;;;;;;;;;;;;;;21.18;49.23;98755.91;4972960;28;1049;-57
2022/03/31 11:59:29;;;;;;;;;;;;;;;20.85;48.27;98744.47;4972797;28;943;-57
2022/03/31 12:01:56;;;;;;;;;;;;;;;20.90;48.69;98750.09;4972712;28;1887;-57
2022/03/31 12:04:25;;;;;;;;;;;;;;;21.09;48.68;98769.41;4972644;28;1152;-57
2022/03/31 12:06:52;;;;;;;;;;;;;;;21.17;48.21;98754.41;4972769;28;879;-57
2022/03/31 12:09:19;;;;;;;;;;;;;;;21.24;49.02;98760.81;4972754;28;839;-57
2022/03/31 12:11:47;;;;;;;;;;;;;;;21.24;48.52;98764.38;4972833;28;849;-57
2022/03/31 12:14:14;;;;;;;;;;;;;;;21.55;48.48;98759.97;4972935;28;1171;-57
2022/03/31 12:16:59;;;;;;;;;;;;;;;21.51;46.16;98774.28;4972817;28;846;-57
2022/03/31 12:19:36;;;;;;;;;;;;;;;20.95;47.81;98763.44;4972815;28;837;-57
2022/03/31 12:22:02;;;;;;;;;;;;;;;20.63;47.77;98764.69;4972571;28;1918;-57
2022/03/31 12:24:29;;;;;;;;;;;;;;;20.40;48.79;98723.13;4972934;28;906;-57
2022/03/31 12:26:57;;;;;;;;;;;;;;;20.53;48.89;98745.19;4972660;28;862;-57
2022/03/31 12:29:25;;;;;;;;;;;;;;;20.62;49.44;98729.47;4972974;28;807;-57
2022/03/31 12:32:06;;;;;;;;;;;;;;;20.70;49.10;98736.94;4972624;28;890;-57
2022/03/31 12:34:34;;;;;;;;;;;;;;;20.85;49.32;98744.47;4972448;28;947;-57
2022/03/31 12:37:01;;;;;;;;;;;;;;;20.79;49.23;98766.88;4972520;28;855;-57
2022/03/31 12:39:28;;;;;;;;;;;;;;;20.53;48.40;98766.88;4972594;28;862;-57
2022/03/31 12:41:58;;;;;;;;;;;;;;;20.25;49.91;98775.00;4955352;28;1907;-57
2022/03/31 12:44:25;;;;;;;;;;;;;;;20.07;50.33;98743.19;4972426;28;859;-57
2022/03/31 12:46:52;;;;;;;;;;;;;;;19.85;50.55;98760.56;4972441;28;1176;-57
2022/03/31 12:49:20;;;;;;;;;;;;;;;19.79;50.64;98754.09;4972330;28;1080;-57
2022/03/31 12:51:48;;;;;;;;;;;;;;;19.78;50.69;98741.38;4972286;28;855;-57
2022/03/31 12:54:33;;;;;;;;;;;;;;;19.89;50.78;98732.31;4972629;28;893;-57
2022/03/31 12:57:01;;;;;;;;;;;;;;;19.79;50.98;98726.06;4972452;28;889;-57
2022/03/31 12:59:33;;;;;;;;;;;;;;;19.68;51.00;98735.09;4972302;28;935;-57
2022/03/31 13:02:00;;;;;;;;;;;;;;;19.61;51.65;98757.94;4972337;28;1946;-57
2022/03/31 13:04:27;;;;;;;;;;;;;;;19.59;52.14;98749.25;4973236;28;812;-56
2022/03/31 13:06:55;;;;;;;;;;;;;;;19.55;51.45;98749.44;4976454;28;756;-57
2022/03/31 13:09:21;;;;;;;;;;;;;;;19.39;51.58;98769.59;4976854;28;838;-57
2022/03/31 13:11:51;;;;;;;;;;;;;;;19.00;51.82;98760.63;4975923;28;858;-57
2022/03/31 13:14:19;;;;;;;;;;;;;;;18.75;52.69;98748.75;4975728;28;875;-57
2022/03/31 13:16:46;;;;;;;;;;;;;;;18.51;54.06;98777.63;4975627;28;924;-57
2022/03/31 13:19:13;;;;;;;;;;;;;;;18.33;54.36;98777.81;4975719;28;878;-57
2022/03/31 13:21:40;;;;;;;;;;;;;;;18.19;54.22;98782.13;4958171;28;1942;-56
2022/03/31 13:24:07;;;;;;;;;;;;;;;18.04;54.98;98773.69;4975763;28;902;-56
2022/03/31 13:26:36;;;;;;;;;;;;;;;17.93;55.56;98784.66;4975374;28;1431;-56
2022/03/31 13:29:03;;;;;;;;;;;;;;;17.90;55.71;98794.78;4975384;28;883;-56
2022/03/31 13:31:30;;;;;;;;;;;;;;;17.87;55.96;98806.91;4975500;28;1248;-57
2022/03/31 13:33:58;;;;;;;;;;;;;;;17.65;55.51;98787.63;4975413;28;870;-56
2022/03/31 13:36:24;;;;;;;;;;;;;;;17.39;56.15;98784.53;4975306;28;891;-58
2022/03/31 13:38:51;;;;;;;;;;;;;;;17.17;56.67;98793.16;4975464;28;819;-58
2022/03/31 13:41:17;;;;;;;;;;;;;;;17.01;57.54;98788.75;4975194;28;1927;-58
2022/03/31 13:43:44;;;;;;;;;;;;;;;16.94;57.63;98777.88;4975374;28;874;-58
2022/03/31 13:46:10;;;;;;;;;;;;;;;16.86;57.83;98771.88;4975230;28;827;-58
2022/03/31 13:48:37;;;;;;;;;;;;;;;16.74;57.96;98754.06;4975199;28;855;-59
2022/03/31 13:51:03;;;;;;;;;;;;;;;16.66;58.17;98754.88;4974949;28;907;-59
2022/03/31 13:53:45;;;;;;;;;;;;;;;16.59;58.40;98744.03;4975034;28;1049;-58